Time;durP1;ratioP1;P1;durP2;ratioP2;P2;SDS_P1;SDS_P2;PMS_P1;PMS_P2;Temp;Humidity;BMP_temperature;BMP_pressure;BME280_temperature;BME280_humidity;BME280_pressure;Samples;Min_cycle;Max_cycle;Signal;HPM_P1;HPM_P2
2022/05/08 00:04:32;;;;;;;23.70;15.70;;;;;;;8.87;63.68;100028.80;425797;1285;143346;-57
2022/05/08 00:14:39;;;;;;;19.20;14.20;;;;;;;8.78;64.11;100024.36;425066;1285;143986;-56
2022/05/08 00:24:44;;;;;;;30.00;18.70;;;;;;;8.70;64.35;100015.46;425800;1285;143142;-57
2022/05/08 00:34:50;;;;;;;23.90;15.90;;;;;;;8.67;64.71;100011.25;425618;1285;142959;-45
2022/05/08 00:44:56;;;;;;;23.00;15.40;;;;;;;8.61;65.30;100011.55;424848;1286;143968;-48
2022/05/08 00:55:03;;;;;;;22.00;14.60;;;;;;;8.72;66.06;100015.06;428712;1285;142289;-49
2022/05/08 01:05:11;;;;;;;27.80;16.60;;;;;;;8.79;65.95;100009.61;441086;1286;143422;-48
2022/05/08 01:15:19;;;;;;;23.40;16.40;;;;;;;8.89;66.03;100000.55;441850;1285;143310;-57
2022/05/08 01:25:25;;;;;;;22.30;14.70;;;;;;;8.96;66.27;100011.39;441985;1285;142909;-54
2022/05/08 01:35:31;;;;;;;21.50;14.30;;;;;;;9.06;66.36;100015.25;441056;1285;143007;-55
2022/05/08 01:45:37;;;;;;;20.10;15.90;;;;;;;9.15;66.46;100016.40;441864;1285;142909;-55
2022/05/08 01:55:43;;;;;;;21.90;15.80;;;;;;;9.15;66.52;100009.38;428214;1285;143632;-52
2022/05/08 02:05:50;;;;;;;22.70;17.80;;;;;;;9.05;66.82;100009.06;435889;1285;148252;-52
2022/05/08 02:15:58;;;;;;;30.40;19.30;;;;;;;8.89;67.06;100009.67;441901;1286;142799;-55
2022/05/08 02:26:04;;;;;;;22.60;16.00;;;;;;;8.72;67.44;100008.56;441244;1285;144015;-54
2022/05/08 02:36:09;;;;;;;23.70;17.70;;;;;;;8.64;67.77;100002.48;441915;1285;142916;-55
2022/05/08 02:46:15;;;;;;;25.80;16.90;;;;;;;8.68;67.84;100005.95;441828;1286;143969;-53
2022/05/08 03:06:45;;;;;;;28.60;19.30;;;;;;;8.82;68.00;100017.33;441864;1284;143194;-55
2022/05/08 03:16:50;;;;;;;23.30;16.40;;;;;;;8.82;68.01;100020.48;441863;1285;143023;-55
2022/05/08 03:26:56;;;;;;;24.30;17.20;;;;;;;8.86;68.10;100017.29;440597;1286;143064;-56
2022/05/08 03:37:04;;;;;;;22.50;17.60;;;;;;;8.95;68.20;100013.04;441949;1285;142677;-56
2022/05/08 03:47:09;;;;;;;31.30;18.80;;;;;;;9.18;68.15;100015.54;441245;1285;143657;-56
2022/05/08 03:57:15;;;;;;;33.90;18.10;;;;;;;9.40;68.22;100026.31;426220;1287;142681;-50
2022/05/08 04:07:21;;;;;;;25.70;17.80;;;;;;;9.62;68.40;100038.61;424815;1287;142147;-54
2022/05/08 04:17:28;;;;;;;22.80;17.40;;;;;;;9.82;68.32;100048.02;428322;1286;143924;-54
2022/05/08 04:27:35;;;;;;;24.00;15.70;;;;;;;10.04;68.20;100046.71;441955;1285;142811;-55
2022/05/08 04:37:40;;;;;;;22.70;16.70;;;;;;;10.29;68.36;100057.19;442005;1285;142271;-58
2022/05/08 04:47:46;;;;;;;16.80;13.40;;;;;;;10.62;67.69;100058.61;441293;1285;143123;-56
2022/05/08 04:57:52;;;;;;;17.10;14.20;;;;;;;11.02;67.53;100066.13;442008;1285;143023;-57
2022/05/08 05:07:58;;;;;;;20.10;15.40;;;;;;;11.53;67.00;100076.61;442038;1285;142012;-56
2022/05/08 05:18:06;;;;;;;19.30;14.40;;;;;;;12.03;66.18;100081.88;441965;1285;143396;-56
2022/05/08 05:28:12;;;;;;;16.10;13.40;;;;;;;12.52;65.31;100089.91;442025;1285;142379;-54
2022/05/08 05:38:18;;;;;;;10.40;8.90;;;;;;;13.12;64.06;100091.79;441286;1285;143625;-57
2022/05/08 05:48:23;;;;;;;14.40;6.30;;;;;;;13.70;63.11;100088.29;442042;1286;197183;-56
2022/05/08 05:58:29;;;;;;;7.50;5.70;;;;;;;14.02;62.40;100089.60;441976;1286;143348;-56
2022/05/08 06:08:35;;;;;;;6.60;4.90;;;;;;;14.41;61.67;100104.59;441131;1287;143312;-55
2022/05/08 06:18:41;;;;;;;4.60;4.20;;;;;;;14.76;61.06;100114.64;441877;1285;144317;-56
2022/05/08 06:28:48;;;;;;;4.40;3.60;;;;;;;15.20;60.34;100114.23;441928;1287;142577;-55
2022/05/08 06:38:54;;;;;;;3.50;3.20;;;;;;;15.61;59.46;100114.52;441233;1286;142535;-57
2022/05/08 06:49:00;;;;;;;4.00;3.10;;;;;;;16.67;58.41;100122.74;441920;1285;145224;-57
2022/05/08 07:09:29;;;;;;;3.50;2.60;;;;;;;24.27;48.98;100127.96;441905;1285;142738;-57
2022/05/08 07:19:35;;;;;;;4.30;2.40;;;;;;;28.31;43.63;100124.80;441899;1286;141558;-56
2022/05/08 07:29:43;;;;;;;3.70;2.80;;;;;;;37.70;34.37;100108.98;441169;1284;142468;-57
2022/05/08 07:39:49;;;;;;;6.10;2.30;;;;;;;42.02;26.56;100111.73;442038;1286;142115;-56
2022/05/08 07:49:55;;;;;;;5.40;3.40;;;;;;;41.13;23.46;100114.14;441053;1286;141514;-52
2022/05/08 08:00:02;;;;;;;3.50;3.10;;;;;;;40.75;21.66;100117.06;440930;1285;141239;-49
2022/05/08 08:10:10;;;;;;;4.30;3.90;;;;;;;35.07;23.10;100121.21;441377;1286;141159;-52
2022/05/08 08:20:17;;;;;;;3.90;3.50;;;;;;;30.47;25.76;100116.50;441202;1285;142919;-51
2022/05/08 08:30:22;;;;;;;5.30;3.60;;;;;;;27.90;28.34;100124.41;433369;1286;145083;-53
2022/05/08 08:40:30;;;;;;;6.00;3.80;;;;;;;27.58;29.24;100125.22;425470;1285;141182;-52
2022/05/08 08:50:36;;;;;;;3.60;3.30;;;;;;;27.97;29.20;100133.63;441165;1285;141628;-49
2022/05/08 09:00:42;;;;;;;2.80;2.60;;;;;;;28.48;28.93;100136.70;436934;1285;141498;-49
2022/05/08 09:10:48;;;;;;;3.20;3.00;;;;;;;28.35;28.58;100138.40;430470;1286;141470;-50
2022/05/08 09:21:54;;;;;;;4.00;3.60;;;;;;;27.65;29.32;100135.71;431919;1285;144797;-53
2022/05/08 09:31:24;;;;;;;5.00;4.20;;;;;;;26.91;29.55;100135.00;442092;1284;141785;-56
2022/05/08 09:41:30;;;;;;;;;;;;;;;26.10;30.59;100144.30;440992;1285;234135;-52
2022/05/08 09:51:36;;;;;;;3.50;2.80;;;;;;;25.92;31.08;100136.95;442142;1285;130244;-54
2022/05/08 10:01:43;;;;;;;4.90;3.00;;;;;;;25.24;31.91;100146.48;441889;1285;142963;-53
2022/05/08 10:22:13;;;;;;;2.90;2.00;;;;;;;23.47;34.08;100144.84;441921;1285;128776;-54
2022/05/08 10:32:53;;;;;;;3.10;1.90;;;;;;;23.51;34.16;100143.16;440847;1285;142062;-55
2022/05/08 10:43:01;;;;;;;2.80;1.90;;;;;;;23.56;34.06;100138.53;441810;1285;143354;-56
2022/05/08 10:53:07;;;;;;;4.50;1.40;;;;;;;23.44;34.46;100136.95;441156;1285;144394;-56
2022/05/08 11:03:20;;;;;;;4.70;2.10;;;;;;;22.73;34.82;100130.05;441724;1285;140806;-55
2022/05/08 11:13:27;;;;;;;3.00;1.70;;;;;;;21.87;35.70;100133.48;441790;1285;141140;-56
2022/05/08 11:23:34;;;;;;;3.40;1.90;;;;;;;21.79;36.04;100126.23;431489;1285;141130;-54
2022/05/08 11:44:19;;;;;;;1.60;1.50;;;;;;;22.18;36.08;100120.48;440826;1286;142158;-55
2022/05/08 11:54:30;;;;;;;4.60;1.90;;;;;;;22.36;35.83;100118.38;441573;1286;141110;-54
2022/05/08 12:04:37;;;;;;;2.00;1.70;;;;;;;22.22;35.98;100108.86;441825;1285;142465;-53
2022/05/08 12:14:43;;;;;;;1.60;1.50;;;;;;;21.93;36.35;100113.41;440973;1285;142325;-54
2022/05/08 12:24:48;;;;;;;2.90;1.40;;;;;;;21.56;36.89;100109.54;441504;1283;141716;-53
2022/05/08 12:34:57;;;;;;;1.90;1.60;;;;;;;21.71;37.06;100109.10;441790;1285;141498;-55
2022/05/08 12:45:05;;;;;;;3.00;1.50;;;;;;;21.73;37.23;100098.23;441877;1285;141933;-54
2022/05/08 12:55:11;;;;;;;3.70;2.20;;;;;;;21.88;37.52;100089.32;441985;1285;151725;-53
2022/05/08 13:05:17;;;;;;;3.80;2.40;;;;;;;21.91;37.86;100091.02;436390;1285;142702;-55
2022/05/08 13:15:23;;;;;;;5.40;2.30;;;;;;;21.74;38.20;100089.94;437531;1285;141017;-54
2022/05/08 13:25:30;;;;;;;5.10;2.50;;;;;;;21.50;38.47;100085.73;441914;1283;143030;-57
2022/05/08 13:35:36;;;;;;;4.40;2.30;;;;;;;21.60;38.43;100081.17;441113;1285;142181;-52
2022/05/08 13:45:42;;;;;;;3.30;1.70;;;;;;;21.48;38.65;100080.48;441905;1285;142110;-55
2022/05/08 13:55:49;;;;;;;2.80;1.50;;;;;;;21.55;38.25;100075.25;441854;1285;141713;-55
2022/05/08 14:05:55;;;;;;;2.70;1.70;;;;;;;21.41;38.10;100068.17;441015;1285;141747;-55
2022/05/08 14:16:01;;;;;;;3.00;2.00;;;;;;;21.42;38.06;100067.48;441938;1284;142502;-54
2022/05/08 14:26:07;;;;;;;7.00;2.10;;;;;;;21.39;38.09;100070.77;441154;1285;142733;-57
2022/05/08 14:36:13;;;;;;;4.10;1.00;;;;;;;21.15;37.85;100077.51;434094;1285;143421;-54
2022/05/08 14:46:19;;;;;;;7.60;2.90;;;;;;;20.72;37.97;100078.52;441947;1284;142308;-53
2022/05/08 14:56:25;;;;;;;2.10;1.20;;;;;;;20.47;38.63;100084.23;441104;1285;142100;-59
2022/05/08 15:06:33;;;;;;;5.10;1.00;;;;;;;20.17;38.53;100090.25;441883;1285;142280;-53
2022/05/08 15:16:40;;;;;;;3.00;1.10;;;;;;;19.85;38.75;100094.39;441926;1285;141815;-56
2022/05/08 15:26:46;;;;;;;1.00;0.60;;;;;;;19.65;39.05;100102.25;441227;1285;143717;-54
2022/05/08 15:36:52;;;;;;;4.00;1.20;;;;;;;19.46;38.94;100103.81;441905;1285;142046;-55
2022/05/08 15:46:59;;;;;;;1.60;0.90;;;;;;;19.15;39.16;100110.23;441954;1285;141598;-54
2022/05/08 15:57:06;;;;;;;2.00;0.60;;;;;;;18.98;39.03;100115.84;442003;1285;141284;-55
2022/05/08 16:07:12;;;;;;;4.70;0.80;;;;;;;18.67;38.92;100132.67;437861;1286;150840;-53
2022/05/08 16:27:41;;;;;;;0.60;0.50;;;;;;;18.26;39.55;100134.42;433314;1285;145928;-52
2022/05/08 16:37:52;;;;;;;1.40;0.70;;;;;;;18.01;39.86;100149.50;441830;1285;144036;-59
2022/05/08 16:47:58;;;;;;;6.40;1.40;;;;;;;17.84;40.40;100148.14;440918;1285;146509;-52
2022/05/08 16:58:04;;;;;;;2.80;0.90;;;;;;;17.85;40.64;100147.66;441730;1285;142495;-48
2022/05/08 17:08:10;;;;;;;2.70;1.20;;;;;;;17.93;40.71;100151.39;440842;1285;142466;-54
2022/05/08 17:18:16;;;;;;;0.60;0.60;;;;;;;17.90;40.41;100149.75;441439;1286;141587;-49
2022/05/08 17:38:46;;;;;;;3.40;1.30;;;;;;;17.71;40.41;100154.00;427944;1285;141493;-49
2022/05/08 17:48:52;;;;;;;2.40;1.40;;;;;;;17.48;40.65;100159.23;430840;1286;145669;-47
2022/05/08 17:58:58;;;;;;;2.30;1.40;;;;;;;17.06;41.30;100168.56;427150;1287;141677;-50
2022/05/08 18:09:04;;;;;;;1.30;1.00;;;;;;;16.64;42.31;100183.21;426581;1285;141610;-46
2022/05/08 18:19:10;;;;;;;2.20;1.60;;;;;;;16.32;42.91;100196.84;426120;1285;141416;-56
2022/05/08 18:29:16;;;;;;;5.90;4.40;;;;;;;15.96;44.25;100212.30;426336;1285;141156;-56
2022/05/08 18:39:23;;;;;;;3.90;2.90;;;;;;;15.62;45.37;100219.27;426018;1287;182742;-52
2022/05/08 18:49:30;;;;;;;2.60;2.20;;;;;;;15.34;46.18;100232.12;426304;1285;140911;-54
2022/05/08 18:59:36;;;;;;;9.00;6.20;;;;;;;15.11;47.00;100243.61;425494;1285;141962;-54
2022/05/08 19:09:44;;;;;;;3.20;2.10;;;;;;;14.95;47.60;100256.27;425875;1286;143477;-49
2022/05/08 19:19:50;;;;;;;4.90;3.00;;;;;;;14.88;48.20;100266.29;426671;1285;141980;-47
2022/05/08 19:29:55;;;;;;;3.70;3.20;;;;;;;14.67;48.88;100271.23;426148;1285;141057;-49
2022/05/08 19:40:02;;;;;;;;;;;;;;;14.44;49.64;100278.64;429896;1285;141248;-49
2022/05/08 19:50:11;;;;;;;9.30;3.40;;;;;;;14.19;50.44;100286.50;430605;1285;131318;-52
2022/05/08 20:00:19;;;;;;;5.30;3.10;;;;;;;13.80;51.45;100288.75;434731;1286;142469;-50
2022/05/08 20:10:25;;;;;;;7.50;2.70;;;;;;;13.37;52.79;100293.09;427444;1285;145611;-51
2022/05/08 20:30:54;;;;;;;5.90;3.60;;;;;;;12.63;54.82;100309.08;426338;1285;209276;-46
2022/05/08 20:41:00;;;;;;;12.20;4.40;;;;;;;12.34;55.72;100319.42;426297;1285;145287;-47
2022/05/08 20:51:06;;;;;;;10.80;3.90;;;;;;;12.04;56.62;100328.17;426423;1285;142662;-50
2022/05/08 21:01:12;;;;;;;9.60;3.80;;;;;;;11.73;57.57;100348.30;425025;1285;141375;-54
2022/05/08 21:11:18;;;;;;;5.80;3.60;;;;;;;12.06;54.66;100361.55;426244;1285;193321;-49
2022/05/08 21:21:24;;;;;;;4.30;3.00;;;;;;;12.16;52.40;100377.89;426743;1287;142235;-49
2022/05/08 21:31:30;;;;;;;9.30;2.20;;;;;;;12.02;51.51;100382.66;427827;1286;142554;-50
2022/05/08 21:41:36;;;;;;;4.10;2.20;;;;;;;11.82;51.11;100393.05;426934;1287;358116;-47
2022/05/08 21:51:42;;;;;;;5.30;2.30;;;;;;;11.60;50.77;100399.04;426559;1287;141473;-47
2022/05/08 22:01:47;;;;;;;10.30;4.40;;;;;;;11.40;50.92;100407.66;426405;1287;141419;-47
2022/05/08 22:11:53;;;;;;;5.10;2.40;;;;;;;11.26;50.68;100419.77;426374;1287;141661;-49
2022/05/08 22:22:00;;;;;;;6.60;2.10;;;;;;;11.13;50.56;100423.11;426418;1285;142711;-49
2022/05/08 22:32:08;;;;;;;4.90;2.40;;;;;;;11.06;50.55;100431.58;425709;1287;141657;-50
2022/05/08 22:42:14;;;;;;;5.30;1.80;;;;;;;10.92;50.74;100435.59;426668;1286;142130;-47
2022/05/08 22:52:20;;;;;;;10.30;3.10;;;;;;;10.75;50.75;100440.48;427052;1286;199206;-48
2022/05/08 23:02:26;;;;;;;5.90;2.60;;;;;;;10.59;51.13;100445.69;425902;1287;142175;-49
2022/05/08 23:12:39;;;;;;;7.40;3.00;;;;;;;10.42;51.01;100457.33;426789;1286;141664;-50
2022/05/08 23:22:47;;;;;;;9.00;2.60;;;;;;;10.25;51.24;100463.59;426259;1287;142441;-48
2022/05/08 23:32:52;;;;;;;7.40;2.70;;;;;;;10.03;51.56;100472.16;427106;1287;141991;-49
2022/05/08 23:42:59;;;;;;;5.30;2.20;;;;;;;9.87;51.88;100475.33;427156;1287;140711;-51
2022/05/08 23:53:05;;;;;;;6.10;3.00;;;;;;;9.72;52.18;100474.79;426962;1286;141797;-46
